createdAt,value
2018-10-03T00:02:41.399Z,70.20
2018-10-03T00:08:46.923Z,70.40
2018-10-03T00:14:51.902Z,71.13
2018-10-03T00:20:56.683Z,70.11
2018-10-03T00:27:01.337Z,70.86
2018-10-03T00:33:07.628Z,70.49
2018-10-03T00:39:13.352Z,70.41
2018-10-03T00:45:18.217Z,70.93
2018-10-03T00:51:22.903Z,70.67
2018-10-03T00:57:27.509Z,70.57
2018-10-03T01:03:32.181Z,71.19
2018-10-03T01:09:36.827Z,71.12
2018-10-03T01:15:41.490Z,71.73
2018-10-03T01:21:46.396Z,71.90
2018-10-03T01:27:51.074Z,71.02
2018-10-03T01:33:55.731Z,71.46
2018-10-03T01:40:00.649Z,71.10
2018-10-03T01:46:05.760Z,70.87
2018-10-03T01:52:10.668Z,70.52
2018-10-03T01:58:16.430Z,70.22
2018-10-03T02:04:21.193Z,70.47
2018-10-03T02:10:25.884Z,70.69
2018-10-03T02:16:31.182Z,70.51
2018-10-03T02:22:36.528Z,70.31
2018-10-03T02:28:41.481Z,70.72
2018-10-03T02:34:46.237Z,71.42
2018-10-03T02:40:51.008Z,71.48
2018-10-03T02:46:55.785Z,72.32
2018-10-03T02:53:00.567Z,72.43
2018-10-03T02:59:05.206Z,72.64
2018-10-03T03:05:09.847Z,73.50
2018-10-03T03:11:15.027Z,71.73
2018-10-03T03:17:20.034Z,72.90
2018-10-03T03:23:25.046Z,72.85
2018-10-03T03:29:30.010Z,72.25
2018-10-03T03:35:34.833Z,72.35
2018-10-03T03:41:39.723Z,72.00
2018-10-03T03:47:44.393Z,71.47
2018-10-03T03:53:49.045Z,71.66
2018-10-03T03:59:53.703Z,71.84
2018-10-03T04:05:58.838Z,71.96
2018-10-03T04:12:03.498Z,72.09
2018-10-03T04:18:08.226Z,72.96
2018-10-03T04:24:13.123Z,72.22
2018-10-03T04:30:17.784Z,72.99
2018-10-03T04:36:22.392Z,73.12
2018-10-03T04:42:27.292Z,73.25
2018-10-03T04:48:32.025Z,73.35
2018-10-03T04:54:36.636Z,73.95
2018-10-03T05:00:41.286Z,74.64
2018-10-03T05:06:45.949Z,75.03
2018-10-03T05:12:50.573Z,74.90
2018-10-03T05:18:55.190Z,75.27
2018-10-03T05:24:59.905Z,75.89
2018-10-03T05:31:04.543Z,76.75
2018-10-03T05:37:09.208Z,75.99
2018-10-03T05:43:14.419Z,75.25
2018-10-03T05:49:19.078Z,75.07
2018-10-03T05:55:23.725Z,74.74
2018-10-03T06:01:28.352Z,74.55
2018-10-03T06:07:33.273Z,74.28
2018-10-03T06:13:37.927Z,74.43
2018-10-03T06:19:42.584Z,74.11
2018-10-03T06:25:47.273Z,73.40
2018-10-03T06:31:51.979Z,73.02
2018-10-03T06:37:56.609Z,72.67
2018-10-03T06:44:01.474Z,72.42
2018-10-03T06:50:06.496Z,72.58
2018-10-03T06:56:11.371Z,74.73
2018-10-03T07:02:15.993Z,75.74
2018-10-03T07:08:20.659Z,75.85
2018-10-03T07:14:25.587Z,74.90
2018-10-03T07:20:30.334Z,73.54
2018-10-03T07:26:35.029Z,72.32
2018-10-03T07:32:39.677Z,71.53
2018-10-03T07:38:44.265Z,69.67
2018-10-03T07:44:49.162Z,68.62
2018-10-03T07:50:53.926Z,66.40
2018-10-03T07:56:58.544Z,65.14
2018-10-03T08:03:03.230Z,65.76
2018-10-03T08:09:09.973Z,65.20
2018-10-03T08:15:14.620Z,65.25
2018-10-03T08:21:19.845Z,65.14
2018-10-03T08:27:24.516Z,64.66
2018-10-03T08:33:29.719Z,62.81
2018-10-03T08:39:34.373Z,61.26
2018-10-03T08:45:39.128Z,60.53
2018-10-03T08:51:44.027Z,60.10
2018-10-03T08:57:48.593Z,59.74
2018-10-03T09:03:53.285Z,59.83
2018-10-03T09:09:58.173Z,58.33
2018-10-03T09:16:02.875Z,55.99
2018-10-03T09:22:07.518Z,55.88
2018-10-03T09:28:12.566Z,58.25
2018-10-03T09:34:17.751Z,57.74
2018-10-03T09:40:22.467Z,56.41
2018-10-03T09:46:27.706Z,56.73
2018-10-03T09:52:32.361Z,55.62
2018-10-03T09:58:37.087Z,52.04
2018-10-03T10:04:41.816Z,55.66
2018-10-03T10:10:46.661Z,57.22
2018-10-03T10:16:51.268Z,58.23
2018-10-03T10:22:56.478Z,58.18
2018-10-03T10:29:01.323Z,58.61
2018-10-03T10:35:06.315Z,56.70
2018-10-03T10:41:11.014Z,57.31
2018-10-03T10:47:15.880Z,57.82
2018-10-03T10:53:20.610Z,58.62
2018-10-03T10:59:25.606Z,56.39
2018-10-03T11:05:30.202Z,56.14
2018-10-03T11:11:34.933Z,57.19
2018-10-03T11:17:39.706Z,58.55
2018-10-03T11:23:44.470Z,58.84
2018-10-03T11:29:49.098Z,59.09
2018-10-03T11:35:53.729Z,59.08
2018-10-03T11:41:58.386Z,56.90
2018-10-03T11:48:03.355Z,57.13
2018-10-03T11:54:08.001Z,56.17
2018-10-03T12:00:12.685Z,52.15
2018-10-03T12:06:17.349Z,49.70
2018-10-03T12:12:22.306Z,48.29
2018-10-03T12:18:26.950Z,46.30
2018-10-03T12:24:31.875Z,45.95
2018-10-03T12:30:36.523Z,45.88
2018-10-03T12:36:41.592Z,45.42
2018-10-03T12:42:46.262Z,48.68
2018-10-03T12:48:51.228Z,49.60
2018-10-03T12:54:55.852Z,51.22
2018-10-03T13:01:00.557Z,51.12
2018-10-03T13:07:05.177Z,52.80
2018-10-03T13:13:10.370Z,53.83
2018-10-03T13:19:16.522Z,53.33
2018-10-03T13:25:21.401Z,47.83
2018-10-03T13:31:26.437Z,44.40
2018-10-03T13:37:31.098Z,45.66
2018-10-03T13:43:35.706Z,49.04
2018-10-03T13:49:40.362Z,49.55
2018-10-03T13:55:44.977Z,47.68
2018-10-03T14:01:49.894Z,44.80
2018-10-03T14:07:54.507Z,46.88
2018-10-03T14:13:59.117Z,49.39
2018-10-03T14:20:03.843Z,51.87
2018-10-03T14:26:08.466Z,49.91
2018-10-03T14:32:13.443Z,48.41
2018-10-03T14:38:18.132Z,50.16
2018-10-03T14:44:22.824Z,51.01
2018-10-03T14:50:27.821Z,49.20
2018-10-03T14:56:32.488Z,48.37
2018-10-03T15:02:37.196Z,51.87
2018-10-03T15:08:42.267Z,52.86
2018-10-03T15:14:46.915Z,52.21
2018-10-03T15:20:51.581Z,51.34
2018-10-03T15:26:56.573Z,50.00
2018-10-03T15:33:01.419Z,51.36
2018-10-03T15:39:07.586Z,52.21
2018-10-03T15:45:12.258Z,51.10
2018-10-03T15:51:17.295Z,52.92
2018-10-03T15:57:21.922Z,53.51
2018-10-03T16:03:26.604Z,53.90
2018-10-03T16:09:32.019Z,52.52
2018-10-03T16:15:36.672Z,53.31
2018-10-03T16:21:41.755Z,54.84
2018-10-03T16:27:46.421Z,55.79
2018-10-03T16:33:51.045Z,54.93
2018-10-03T16:39:55.749Z,55.32
2018-10-03T16:46:00.358Z,55.79
2018-10-03T16:52:05.011Z,57.09
2018-10-03T16:58:09.886Z,57.70
2018-10-03T17:04:14.606Z,58.16
2018-10-03T17:10:19.632Z,59.03
2018-10-03T17:16:24.644Z,58.54
2018-10-03T17:22:29.294Z,59.32
2018-10-03T17:28:33.918Z,60.46
2018-10-03T17:34:38.659Z,60.93
2018-10-03T17:40:43.295Z,60.89
2018-10-03T17:46:48.851Z,62.63
2018-10-03T17:52:53.472Z,62.80
2018-10-03T17:58:58.238Z,64.03
2018-10-03T18:05:03.094Z,64.79
2018-10-03T18:11:07.293Z,66.08
2018-10-03T18:17:18.772Z,66.91
2018-10-03T18:23:23.435Z,67.46
2018-10-03T18:29:28.091Z,68.43
2018-10-03T18:35:32.829Z,68.03
2018-10-03T18:41:37.663Z,68.08
2018-10-03T18:47:42.367Z,67.67
2018-10-03T18:53:47.005Z,66.88
2018-10-03T18:59:51.674Z,67.25
2018-10-03T19:05:56.471Z,64.91
2018-10-03T19:12:01.472Z,64.32
2018-10-03T19:18:06.322Z,63.89
2018-10-03T19:24:11.070Z,63.16
2018-10-03T19:30:15.707Z,60.83
2018-10-03T19:36:20.783Z,61.91
2018-10-03T19:42:25.375Z,62.20
2018-10-03T19:48:30.086Z,63.64
2018-10-03T19:54:34.791Z,64.77
2018-10-03T20:00:39.434Z,66.22
2018-10-03T20:06:44.119Z,67.47
2018-10-03T20:12:48.812Z,67.44
2018-10-03T20:18:53.493Z,68.22
2018-10-03T20:24:58.121Z,68.96
2018-10-03T20:31:03.136Z,69.91
2018-10-03T20:37:08.034Z,70.22
2018-10-03T20:43:12.698Z,70.30
2018-10-03T20:49:17.329Z,70.33
2018-10-03T20:55:21.961Z,70.72
2018-10-03T21:01:27.032Z,71.21
2018-10-03T21:07:31.736Z,71.15
2018-10-03T21:13:36.397Z,71.44
2018-10-03T21:19:41.035Z,72.22
2018-10-03T21:25:46.001Z,72.18
2018-10-03T21:31:50.687Z,73.26
2018-10-03T21:37:55.365Z,73.43
2018-10-03T21:44:00.005Z,72.76
2018-10-03T21:50:05.350Z,73.78
2018-10-03T21:56:09.978Z,73.00
2018-10-03T22:02:15.110Z,73.24
2018-10-03T22:08:19.801Z,73.97
2018-10-03T22:14:24.508Z,73.39
2018-10-03T22:20:29.129Z,73.69
2018-10-03T22:26:34.127Z,73.10
2018-10-03T22:32:38.814Z,73.91
2018-10-03T22:38:43.455Z,74.07
2018-10-03T22:44:48.427Z,73.30
2018-10-03T22:50:53.061Z,72.98
2018-10-03T22:56:57.676Z,72.83
2018-10-03T23:03:02.302Z,72.95
2018-10-03T23:09:08.109Z,73.17
2018-10-03T23:15:12.767Z,73.60
2018-10-03T23:21:17.387Z,73.06
2018-10-03T23:27:22.013Z,73.18
2018-10-03T23:33:26.875Z,72.23
2018-10-03T23:39:31.487Z,72.84
2018-10-03T23:45:36.090Z,73.93
2018-10-03T23:51:40.748Z,74.13
2018-10-03T23:57:45.698Z,73.34
